createdAt,value
2017-10-03T00:05:35.480Z,1004.6
2017-10-03T00:15:49.326Z,1004.7
2017-10-03T00:26:03.186Z,1004.5
2017-10-03T00:36:17.587Z,1004.5
2017-10-03T00:46:31.266Z,1004.5
2017-10-03T00:56:46.340Z,1004.4
2017-10-03T01:07:00.355Z,1004.4
2017-10-03T01:17:15.043Z,1004.5
2017-10-03T01:27:29.123Z,1004.5
2017-10-03T01:37:39.352Z,1004.5
2017-10-03T01:47:53.298Z,1004.4
2017-10-03T01:58:08.206Z,1004.4
2017-10-03T02:08:23.048Z,1004.4
2017-10-03T02:18:36.630Z,1004.5
2017-10-03T02:28:50.904Z,1004.5
2017-10-03T02:39:05.829Z,1004.6
2017-10-03T02:49:19.424Z,1004.6
2017-10-03T02:59:32.641Z,1004.7
2017-10-03T03:09:45.858Z,1004.7
2017-10-03T03:20:00.122Z,1004.7
2017-10-03T03:30:14.497Z,1004.8
2017-10-03T03:40:28.467Z,1004.8
2017-10-03T03:50:38.756Z,1004.8
2017-10-03T04:00:52.377Z,1004.8
2017-10-03T04:11:07.054Z,1004.9
2017-10-03T04:21:20.660Z,1005
2017-10-03T04:31:35.175Z,1005.2
2017-10-03T04:41:49.814Z,1005.2
2017-10-03T04:52:04.810Z,1005.4
2017-10-03T05:02:19.196Z,1005.5
2017-10-03T05:12:33.754Z,1005.5
2017-10-03T05:22:48.711Z,1005.7
2017-10-03T05:33:03.206Z,1005.8
2017-10-03T05:43:17.531Z,1005.9
2017-10-03T05:53:31.267Z,1006
2017-10-03T06:03:41.504Z,1006.2
2017-10-03T06:13:56.160Z,1006.3
2017-10-03T06:24:10.799Z,1006.5
2017-10-03T06:34:24.127Z,1006.8
2017-10-03T06:44:37.491Z,1006.7
2017-10-03T06:54:51.805Z,1006.9
2017-10-03T07:05:05.183Z,1007.1
2017-10-03T07:15:19.581Z,1007.4
2017-10-03T07:25:34.302Z,1007.6
2017-10-03T07:35:49.302Z,1007.8
2017-10-03T07:46:04.168Z,1008
2017-10-03T07:56:18.186Z,1008.1
2017-10-03T08:06:32.947Z,1008.3
2017-10-03T08:16:43.211Z,1008.4
2017-10-03T08:26:57.334Z,1008.6
2017-10-03T08:37:10.985Z,1008.9
2017-10-03T08:47:25.312Z,1008.8
2017-10-03T08:57:39.528Z,1009.4
2017-10-03T09:07:52.772Z,1009.3
2017-10-03T09:18:06.031Z,1009.4
2017-10-03T09:28:19.756Z,1009.4
2017-10-03T09:38:34.367Z,1009.7
2017-10-03T09:48:47.589Z,1010.2
2017-10-03T09:59:02.600Z,1009.8
2017-10-03T10:09:17.542Z,1010
2017-10-03T10:19:31.179Z,1010
2017-10-03T10:29:41.512Z,1010.3
2017-10-03T10:39:55.781Z,1010.6
2017-10-03T10:50:09.689Z,1010.4
2017-10-03T11:00:24.851Z,1010.5
2017-10-03T11:10:39.552Z,1010.6
2017-10-03T11:20:52.834Z,1010.8
2017-10-03T11:31:07.347Z,1010.7
2017-10-03T11:41:21.774Z,1010.8
2017-10-03T11:51:36.773Z,1011.1
2017-10-03T12:01:51.829Z,1011.2
2017-10-03T12:12:06.353Z,1011.5
2017-10-03T12:22:19.719Z,1011.5
2017-10-03T12:32:34.606Z,1011.4
2017-10-03T12:42:44.962Z,1011.3
2017-10-03T12:52:59.249Z,1011.6
2017-10-03T13:03:12.870Z,1011.5
2017-10-03T13:13:26.506Z,1011.4
2017-10-03T13:23:40.884Z,1011.8
2017-10-03T13:33:54.291Z,1012
2017-10-03T13:44:07.660Z,1012.2
2017-10-03T13:54:22.544Z,1012.1
2017-10-03T14:04:36.773Z,1012.1
2017-10-03T14:14:51.039Z,1012.1
2017-10-03T14:25:04.794Z,1012.4
2017-10-03T14:35:19.320Z,1012.6
2017-10-03T14:45:32.740Z,1012.7
2017-10-03T14:55:43.200Z,1012.5
2017-10-03T15:05:58.282Z,1012.7
2017-10-03T15:16:13.168Z,1012.8
2017-10-03T15:26:27.143Z,1012.8
2017-10-03T15:36:41.664Z,1013
2017-10-03T15:46:55.376Z,1013.1
2017-10-03T15:57:09.563Z,1013.2
2017-10-03T16:07:23.692Z,1013.2
2017-10-03T16:17:36.910Z,1013.2
2017-10-03T16:27:51.157Z,1013.3
2017-10-03T16:38:04.605Z,1013.5
2017-10-03T16:48:18.399Z,1013.5
2017-10-03T16:58:33.485Z,1013.7
2017-10-03T17:08:43.461Z,1013.8
2017-10-03T17:18:52.934Z,1013.9
2017-10-03T17:29:07.085Z,1014.1
2017-10-03T17:39:21.520Z,1014.2
2017-10-03T17:49:35.087Z,1014.3
2017-10-03T17:59:49.001Z,1014.4
2017-10-03T18:10:02.934Z,1014.4
2017-10-03T18:20:16.588Z,1014.6
2017-10-03T18:30:30.658Z,1014.7
2017-10-03T18:40:45.030Z,1014.8
2017-10-03T18:50:58.567Z,1015
2017-10-03T19:01:12.496Z,1015
2017-10-03T19:11:25.680Z,1015
2017-10-03T19:21:39.207Z,1015.1
2017-10-03T19:31:53.944Z,1015.3
2017-10-03T19:42:08.517Z,1015.3
2017-10-03T19:52:22.584Z,1015.4
2017-10-03T20:02:31.656Z,1015.4
2017-10-03T20:12:45.575Z,1015.5
2017-10-03T20:23:00.542Z,1015.5
2017-10-03T20:33:14.578Z,1015.5
2017-10-03T20:43:28.930Z,1015.5
2017-10-03T20:53:42.005Z,1015.4
2017-10-03T21:03:56.590Z,1015.4
2017-10-03T21:14:10.602Z,1015.4
2017-10-03T21:24:24.709Z,1015.4
2017-10-03T21:34:39.066Z,1015.3
2017-10-03T21:44:52.331Z,1015.3
2017-10-03T21:55:05.675Z,1015.5
2017-10-03T22:05:19.050Z,1015.6
2017-10-03T22:15:32.872Z,1015.6
2017-10-03T22:25:46.966Z,1015.6
2017-10-03T22:36:00.016Z,1015.5
2017-10-03T22:46:14.866Z,1015.7
2017-10-03T22:56:28.518Z,1015.6
2017-10-03T23:06:37.579Z,1015.5
2017-10-03T23:16:52.196Z,1015.4
2017-10-03T23:27:06.063Z,1015.3
2017-10-03T23:37:19.190Z,1015.3
2017-10-03T23:47:33.155Z,1015.2
2017-10-03T23:57:46.950Z,1015.3
